Time;durP1;ratioP1;P1;durP2;ratioP2;P2;SDS_P1;SDS_P2;PMS_P1;PMS_P2;Temp;Humidity;BMP_temperature;BMP_pressure;BME280_temperature;BME280_humidity;BME280_pressure;Samples;Min_cycle;Max_cycle;Signal;HPM_P1;HPM_P2
2022/05/04 02:02:38;;;;;;;13.07;3.77;;;;;;;-145.18;100.00;46687.75;5221975;23;20366;-71
2022/05/04 02:05:04;;;;;;;18.60;4.40;;;;;;;-145.18;100.00;46699.47;5000166;28;20386;-71
2022/05/04 02:07:30;;;;;;;12.13;3.83;;;;;;;-145.18;100.00;46693.59;4990544;28;20295;-71
2022/05/04 02:09:56;;;;;;;11.77;4.03;;;;;;;-145.18;100.00;46695.56;4991281;28;20759;-71
2022/05/04 02:12:22;;;;;;;13.77;3.47;;;;;;;-145.18;100.00;46707.28;5009770;28;20052;-71
2022/05/04 02:14:47;;;;;;;8.33;3.37;;;;;;;-145.18;100.00;46695.56;5010025;28;20627;-71
2022/05/04 02:17:12;;;;;;;12.87;4.43;;;;;;;-145.18;100.00;46683.84;5001139;28;20031;-71
2022/05/04 02:19:38;;;;;;;13.57;4.50;;;;;;;-145.18;100.00;46681.88;4990857;28;20043;-71
2022/05/04 02:22:03;;;;;;;16.77;3.67;;;;;;;-145.18;100.00;46683.84;4989842;28;20026;-71
2022/05/04 02:24:29;;;;;;;7.43;3.53;;;;;;;-145.18;100.00;46681.88;4990603;28;20049;-71
2022/05/04 02:26:54;;;;;;;10.87;4.03;;;;;;;-145.18;100.00;46687.75;4972697;28;20580;-71
2022/05/04 02:29:19;;;;;;;17.57;4.30;;;;;;;-145.18;100.00;46683.84;4990624;28;20041;-71
2022/05/04 02:31:45;;;;;;;18.60;3.83;;;;;;;-145.18;100.00;46674.06;4993764;28;20053;-71
2022/05/04 02:34:10;;;;;;;13.27;3.33;;;;;;;-145.18;100.00;46705.31;4993980;28;20042;-71
2022/05/04 02:39:19;;;;;;;13.93;4.60;;;;;;;-145.18;100.00;46677.97;4994093;28;20044;-70
2022/05/04 02:41:48;;;;;;;15.43;3.63;;;;;;;-145.18;100.00;46654.53;4993926;28;20276;-71
2022/05/04 02:44:13;;;;;;;16.43;4.00;;;;;;;-145.18;100.00;46648.69;4994083;28;20040;-71
2022/05/04 02:46:39;;;;;;;13.10;4.80;;;;;;;-145.18;100.00;46631.09;4994397;28;20339;-71
2022/05/04 02:49:04;;;;;;;15.00;3.90;;;;;;;-145.18;100.00;46640.88;4993234;28;20478;-71
2022/05/04 02:51:29;;;;;;;8.90;3.97;;;;;;;-145.18;100.00;46631.09;4994276;28;20426;-71
2022/05/04 02:53:55;;;;;;;11.10;4.80;;;;;;;-145.18;100.00;46636.94;4993355;28;20080;-70
2022/05/04 02:56:20;;;;;;;13.50;4.50;;;;;;;-145.18;100.00;46633.06;4993926;28;20166;-71
2022/05/04 02:58:46;;;;;;;11.97;4.17;;;;;;;-145.18;100.00;46629.13;4993654;28;20030;-71
2022/05/04 03:03:59;;;;;;;13.90;4.60;;;;;;;-145.18;100.00;46635.00;4993214;28;20597;-71
2022/05/04 03:06:25;;;;;;;12.40;4.10;;;;;;;-145.18;100.00;46636.94;4993901;28;20264;-71
2022/05/04 03:08:50;;;;;;;11.90;3.97;;;;;;;-145.18;100.00;46633.06;4993463;28;20342;-71
2022/05/04 03:14:00;;;;;;;11.33;4.17;;;;;;;-145.18;100.00;46627.19;4993083;28;20110;-71
2022/05/04 03:16:25;;;;;;;10.57;4.40;;;;;;;-145.18;100.00;46631.09;4993769;28;20289;-71
2022/05/04 03:18:51;;;;;;;8.93;4.20;;;;;;;-145.18;100.00;46621.31;4993051;28;20026;-71
2022/05/04 03:21:16;;;;;;;7.77;4.07;;;;;;;-145.18;100.00;46623.28;4993559;28;20791;-71
2022/05/04 03:23:41;;;;;;;13.97;4.57;;;;;;;-145.18;100.00;46601.78;4993203;28;20109;-70
2022/05/04 03:26:10;;;;;;;11.50;3.90;;;;;;;-145.18;100.00;46619.38;4993376;28;20116;-70
2022/05/04 03:28:35;;;;;;;18.63;4.97;;;;;;;-145.18;100.00;46597.88;4993233;28;20748;-70
2022/05/04 03:31:01;;;;;;;12.40;4.77;;;;;;;-145.18;100.00;46640.88;4993130;28;20300;-70
2022/05/04 03:33:26;;;;;;;13.70;4.30;;;;;;;-145.18;100.00;46638.91;4992663;28;20504;-71
2022/05/04 03:35:51;;;;;;;15.03;4.60;;;;;;;-145.18;100.00;46633.06;4993148;28;20077;-71
2022/05/04 03:38:17;;;;;;;15.67;5.03;;;;;;;-145.18;100.00;46631.09;4993020;28;20097;-71
2022/05/04 03:40:42;;;;;;;10.27;4.20;;;;;;;-145.18;100.00;46635.00;4975825;28;20066;-70
2022/05/04 03:43:08;;;;;;;10.73;4.30;;;;;;;-145.18;100.00;46636.94;4992678;28;20113;-70
2022/05/04 03:45:33;;;;;;;9.10;4.20;;;;;;;-145.18;100.00;46650.63;4993289;28;20372;-70
2022/05/04 03:47:58;;;;;;;15.37;4.20;;;;;;;-145.18;100.00;46631.09;4992382;28;20038;-70
2022/05/04 03:50:24;;;;;;;12.37;4.70;;;;;;;-145.18;100.00;46633.06;4993010;28;20022;-70
2022/05/04 03:52:49;;;;;;;16.73;4.83;;;;;;;-145.18;100.00;46625.22;4975053;28;20034;-70
2022/05/04 03:55:15;;;;;;;18.43;5.20;;;;;;;-145.18;100.00;46621.31;4993231;28;20498;-70
2022/05/04 03:57:40;;;;;;;14.07;5.30;;;;;;;-145.18;100.00;46578.34;4992537;28;20064;-70
2022/05/04 04:00:09;;;;;;;20.07;4.73;;;;;;;-145.18;100.00;46621.31;4992601;28;20030;-70
2022/05/04 04:02:35;;;;;;;13.47;5.23;;;;;;;-145.18;100.00;46578.34;4992190;28;20058;-70
2022/05/04 04:05:00;;;;;;;7.43;4.60;;;;;;;-145.18;100.00;46576.41;4992679;28;20633;-70
2022/05/04 04:07:26;;;;;;;17.57;5.07;;;;;;;-145.18;100.00;46576.41;4992471;28;20076;-70
2022/05/04 04:09:51;;;;;;;8.73;4.93;;;;;;;-145.18;100.00;46623.28;4992664;28;20026;-70
2022/05/04 04:12:16;;;;;;;13.23;5.37;;;;;;;-145.18;100.00;46625.22;4974806;28;20037;-70
2022/05/04 04:14:42;;;;;;;18.53;6.07;;;;;;;-145.18;100.00;46578.34;4992404;28;20077;-70
2022/05/04 04:17:08;;;;;;;10.20;4.93;;;;;;;-145.18;100.00;46621.31;4992488;28;20037;-70
2022/05/04 04:19:33;;;;;;;11.43;4.50;;;;;;;-145.18;100.00;46625.22;4992762;28;20043;-70
2022/05/04 04:21:58;;;;;;;10.47;4.93;;;;;;;-145.18;100.00;46621.31;4991438;28;20117;-70
2022/05/04 04:24:24;;;;;;;12.67;5.17;;;;;;;-145.18;100.00;46627.19;4991931;28;20046;-70
2022/05/04 04:26:50;;;;;;;9.37;4.50;;;;;;;-145.18;100.00;46633.06;4991334;28;20031;-71
2022/05/04 04:29:15;;;;;;;10.87;4.57;;;;;;;-145.18;100.00;46631.09;4991774;28;20046;-70
2022/05/04 04:31:41;;;;;;;18.90;5.53;;;;;;;-145.18;100.00;46629.13;4992150;28;20551;-70
2022/05/04 04:34:07;;;;;;;8.63;4.10;;;;;;;-145.18;100.00;46629.13;4990313;28;20836;-70
2022/05/04 04:36:33;;;;;;;20.67;5.23;;;;;;;-145.18;100.00;46625.22;4991093;28;20058;-70
2022/05/04 04:38:58;;;;;;;17.70;6.80;;;;;;;-145.18;100.00;46582.25;4991633;28;20030;-70
2022/05/04 04:41:24;;;;;;;11.97;5.37;;;;;;;-145.18;100.00;46623.28;4991923;28;20038;-70
2022/05/04 04:43:49;;;;;;;13.13;5.40;;;;;;;-145.18;100.00;46576.41;5002487;28;20398;-70
2022/05/04 04:46:14;;;;;;;19.10;6.40;;;;;;;-145.18;100.00;46578.34;5011669;28;20041;-70
2022/05/04 04:48:40;;;;;;;14.37;5.90;;;;;;;-145.18;100.00;46560.78;5011102;28;20038;-70
2022/05/04 04:51:05;;;;;;;21.47;5.93;;;;;;;-145.18;100.00;46572.50;5011436;28;20116;-70
2022/05/04 04:53:31;;;;;;;17.63;5.73;;;;;;;-145.18;100.00;46566.63;5010563;28;20105;-70
2022/05/04 04:55:57;;;;;;;14.93;6.20;;;;;;;-145.18;100.00;46568.59;5011173;28;20490;-70
2022/05/04 04:58:22;;;;;;;13.27;5.63;;;;;;;-145.18;100.00;46560.78;5011164;28;20271;-70
2022/05/04 05:00:48;;;;;;;13.50;6.23;;;;;;;-145.18;100.00;46560.78;5011296;28;20037;-70
2022/05/04 05:03:13;;;;;;;18.00;5.13;;;;;;;-145.18;100.00;46562.72;5010534;28;20053;-70
2022/05/04 05:05:42;;;;;;;16.53;5.70;;;;;;;-145.18;100.00;46566.63;5011492;28;20046;-70
2022/05/04 05:08:09;;;;;;;16.53;5.50;;;;;;;-145.18;100.00;46564.69;5010562;28;20544;-70
2022/05/04 05:10:35;;;;;;;14.80;5.40;;;;;;;-145.18;100.00;46566.63;4993674;28;20358;-70
2022/05/04 05:13:00;;;;;;;14.67;5.27;;;;;;;-145.18;100.00;46560.78;5010367;28;20391;-70
2022/05/04 05:18:09;;;;;;;15.23;5.67;;;;;;;-145.18;100.00;46552.97;4995990;28;20048;-70
2022/05/04 05:20:35;;;;;;;13.47;5.47;;;;;;;-145.18;100.00;46560.78;5010973;28;20734;-70
2022/05/04 05:23:02;;;;;;;15.67;6.77;;;;;;;-145.18;100.00;46562.72;5010751;28;20054;-70
2022/05/04 05:25:28;;;;;;;13.97;5.87;;;;;;;-145.18;100.00;46566.63;5011157;28;20026;-70
2022/05/04 05:27:55;;;;;;;16.33;6.27;;;;;;;-145.18;100.00;46564.69;5010273;28;20322;-70
2022/05/04 05:30:21;;;;;;;16.70;7.03;;;;;;;-145.18;100.00;46566.63;5011155;28;20318;-70
2022/05/04 05:32:46;;;;;;;13.73;6.90;;;;;;;-145.18;100.00;46564.69;5010199;28;20283;-70
2022/05/04 05:35:11;;;;;;;15.63;6.17;;;;;;;-145.18;100.00;46562.72;5010220;28;20057;-69
2022/05/04 05:37:37;;;;;;;22.37;7.20;;;;;;;-145.18;100.00;46578.34;5009845;28;20536;-70
2022/05/04 05:40:03;;;;;;;17.87;6.07;;;;;;;-145.18;100.00;46572.50;5010349;28;20030;-70
2022/05/04 05:42:29;;;;;;;17.83;6.47;;;;;;;-145.18;100.00;46572.50;5010418;28;20062;-70
2022/05/04 05:44:55;;;;;;;17.60;6.03;;;;;;;-145.18;100.00;46574.44;5010485;28;20345;-70
2022/05/04 05:47:20;;;;;;;13.83;6.10;;;;;;;-145.18;100.00;46578.34;5010393;28;20034;-71
2022/05/04 05:49:45;;;;;;;15.20;6.63;;;;;;;-145.18;100.00;46578.34;4992760;28;20264;-71
2022/05/04 05:52:11;;;;;;;14.60;6.10;;;;;;;-145.18;100.00;46582.25;5010182;28;20034;-71
2022/05/04 05:54:36;;;;;;;12.33;6.00;;;;;;;-145.18;100.00;46586.16;5010063;28;20033;-71
2022/05/04 05:57:02;;;;;;;18.17;5.43;;;;;;;-145.18;100.00;46601.78;5009442;28;20088;-71
2022/05/04 05:59:27;;;;;;;22.00;6.20;;;;;;;-145.18;100.00;46607.66;5010290;28;20034;-70
2022/05/04 06:01:53;;;;;;;15.23;5.73;;;;;;;-145.18;100.00;46609.59;4992562;28;20050;-71
2022/05/04 06:04:18;;;;;;;20.30;6.60;;;;;;;-145.18;100.00;46627.19;5009298;28;20072;-70
2022/05/04 06:06:43;;;;;;;17.30;6.30;;;;;;;-145.18;100.00;46633.06;5010505;28;20062;-70
2022/05/04 06:09:09;;;;;;;15.30;5.90;;;;;;;-145.18;100.00;46625.22;5009644;28;20038;-70
2022/05/04 06:11:35;;;;;;;15.23;5.73;;;;;;;-145.18;100.00;46635.00;4992774;28;20034;-70
2022/05/04 06:14:01;;;;;;;25.43;6.60;;;;;;;-145.18;100.00;46648.69;5009199;28;20405;-71
2022/05/04 06:16:27;;;;;;;12.70;5.70;;;;;;;-145.18;100.00;46650.63;5010399;28;20341;-70
2022/05/04 06:18:52;;;;;;;15.87;5.47;;;;;;;-145.18;100.00;46679.94;5009747;28;20397;-70
2022/05/04 06:21:18;;;;;;;17.60;4.97;;;;;;;-145.18;100.00;46681.88;5010245;28;20112;-70
2022/05/04 06:23:43;;;;;;;11.57;4.83;;;;;;;-145.18;100.00;46679.94;5009607;28;20493;-70
2022/05/04 06:26:08;;;;;;;14.50;5.10;;;;;;;-145.18;100.00;46695.56;5009934;28;20041;-71
2022/05/04 06:28:34;;;;;;;11.63;4.83;;;;;;;-145.18;100.00;46695.56;5009907;28;20033;-70
2022/05/04 06:36:28;;;;;;;13.40;4.73;;;;;;;-145.18;100.00;46724.84;5010607;28;20637;-71
2022/05/04 06:38:53;;;;;;;14.73;4.47;;;;;;;-145.18;100.00;46720.94;5009393;28;20268;-71
2022/05/04 06:41:18;;;;;;;17.03;5.40;;;;;;;-145.18;100.00;46736.56;5009743;28;20529;-71
2022/05/04 06:43:45;;;;;;;11.40;4.53;;;;;;;-145.18;100.00;46728.75;5009051;28;20045;-71
2022/05/04 06:46:11;;;;;;;16.70;4.60;;;;;;;-145.18;100.00;46726.81;5009646;28;20045;-71
2022/05/04 06:48:36;;;;;;;10.70;4.33;;;;;;;-145.18;100.00;46746.34;5006944;28;20275;-71
2022/05/04 06:51:01;;;;;;;14.30;5.00;;;;;;;-145.18;100.00;46769.78;5008770;28;20858;-71
2022/05/04 06:53:27;;;;;;;16.03;4.50;;;;;;;-145.18;100.00;46758.06;5009177;28;20074;-71
2022/05/04 06:55:52;;;;;;;12.23;4.00;;;;;;;-145.18;100.00;46853.78;5009669;28;20041;-71
2022/05/04 06:58:18;;;;;;;12.97;4.60;;;;;;;-145.18;100.00;46953.41;5007860;28;20042;-71
2022/05/04 07:00:43;;;;;;;10.87;3.63;;;;;;;-145.18;100.00;47295.28;4992015;28;20042;-71
2022/05/04 07:03:09;;;;;;;13.13;4.10;;;;;;;-145.18;100.00;47260.13;4991505;28;20062;-71
2022/05/04 07:05:34;;;;;;;12.27;4.90;;;;;;;-145.18;100.00;47422.28;5009791;28;20084;-71
2022/05/04 07:08:00;;;;;;;11.47;3.80;;;;;;;-145.18;100.00;47410.56;5009045;28;20185;-71
2022/05/04 07:10:25;;;;;;;10.50;3.90;;;;;;;-145.18;100.00;47385.16;5009821;28;20120;-71
2022/05/04 07:12:51;;;;;;;11.03;3.63;;;;;;;-145.18;100.00;47443.75;5009191;28;20121;-71
2022/05/04 07:15:17;;;;;;;12.87;3.53;;;;;;;-145.18;100.00;47422.28;5009463;28;20080;-71
2022/05/04 07:17:42;;;;;;;16.67;4.20;;;;;;;-145.18;100.00;47396.88;5012934;28;20045;-71
2022/05/04 07:20:09;;;;;;;9.90;3.40;;;;;;;-145.18;100.00;47394.91;4995050;28;20280;-71
2022/05/04 07:22:34;;;;;;;11.50;3.87;;;;;;;-145.18;100.00;47367.56;5013019;28;20124;-71
2022/05/04 07:25:00;;;;;;;16.57;4.73;;;;;;;-145.18;100.00;47379.28;5012639;28;20275;-71
2022/05/04 07:27:25;;;;;;;8.43;4.00;;;;;;;-145.18;100.00;47387.09;5013094;28;20121;-71
2022/05/04 07:29:50;;;;;;;11.23;4.50;;;;;;;-145.18;100.00;47363.66;5012680;28;20077;-72
2022/05/04 07:32:16;;;;;;;14.43;4.00;;;;;;;-145.18;100.00;47359.75;4994993;28;20041;-71
2022/05/04 07:34:42;;;;;;;13.40;3.80;;;;;;;-145.18;100.00;47410.56;5012534;28;20041;-71
2022/05/04 07:37:07;;;;;;;9.70;4.63;;;;;;;-145.18;100.00;47391.00;4995121;28;20030;-71
2022/05/04 07:42:21;;;;;;;14.83;4.93;;;;;;;-145.18;100.00;47367.56;5013157;28;20125;-72
2022/05/04 07:44:56;;;;;;;13.03;3.87;;;;;;;-145.18;100.00;47371.47;4995385;28;20271;-72
2022/05/04 07:47:21;;;;;;;13.25;4.50;;;;;;;-145.18;100.00;47348.03;5012579;28;20275;-72
2022/05/04 07:49:47;;;;;;;9.63;4.73;;;;;;;-145.18;100.00;47353.88;5012334;28;20536;-71
2022/05/04 07:52:13;;;;;;;7.67;4.03;;;;;;;-145.18;100.00;47342.16;4994945;28;20451;-71
2022/05/04 07:54:38;;;;;;;13.10;4.93;;;;;;;-145.18;100.00;47367.56;5012285;28;20307;-71
2022/05/04 07:57:04;;;;;;;17.77;4.87;;;;;;;-145.18;100.00;47336.31;5012007;28;20026;-71
2022/05/04 07:59:29;;;;;;;11.43;4.70;;;;;;;-145.18;100.00;47369.53;5012140;28;20034;-72
2022/05/04 08:04:38;;;;;;;11.83;5.07;;;;;;;-145.18;100.00;47334.34;5012227;28;20149;-71
2022/05/04 08:07:04;;;;;;;11.53;4.87;;;;;;;-145.18;100.00;47324.59;5011961;28;20787;-72
2022/05/04 08:09:34;;;;;;;11.63;4.70;;;;;;;-145.18;100.00;47328.50;4994271;28;20084;-72
2022/05/04 08:12:00;;;;;;;11.17;4.80;;;;;;;-145.18;100.00;47322.63;5011672;28;20545;-72
2022/05/04 08:14:25;;;;;;;13.00;4.50;;;;;;;-145.18;100.00;47299.19;5011665;28;20291;-71
2022/05/04 08:16:50;;;;;;;8.10;5.10;;;;;;;-145.18;100.00;47293.31;5012077;28;20030;-72
2022/05/04 08:19:16;;;;;;;11.20;5.20;;;;;;;-145.18;100.00;47281.59;5011389;28;20029;-71
2022/05/04 08:21:41;;;;;;;12.83;5.50;;;;;;;-145.18;100.00;47301.16;5011815;28;20045;-72
2022/05/04 08:24:07;;;;;;;7.93;5.13;;;;;;;-145.18;100.00;47293.31;5011010;28;20087;-71
2022/05/04 08:26:33;;;;;;;14.53;5.60;;;;;;;-145.18;100.00;47308.97;5012077;28;20030;-71
2022/05/04 08:28:58;;;;;;;15.27;5.63;;;;;;;-145.18;100.00;47289.41;5010550;28;20140;-72
2022/05/04 08:31:24;;;;;;;8.30;4.47;;;;;;;-145.18;100.00;47279.66;5011667;28;20038;-72
2022/05/04 08:33:50;;;;;;;12.17;5.80;;;;;;;-145.18;100.00;47295.28;5011025;28;20491;-71
2022/05/04 08:36:16;;;;;;;14.30;5.23;;;;;;;-145.18;100.00;47285.50;4994383;28;20034;-71
2022/05/04 08:38:41;;;;;;;15.27;6.27;;;;;;;-145.18;100.00;47301.16;5011229;28;20263;-71
2022/05/04 08:41:07;;;;;;;11.40;5.77;;;;;;;-145.18;100.00;47279.66;5011321;28;20609;-71
2022/05/04 08:43:33;;;;;;;12.73;5.67;;;;;;;-145.18;100.00;47293.31;5011155;28;20059;-72
2022/05/04 08:46:04;;;;;;;12.13;5.43;;;;;;;-145.18;100.00;47265.97;5011252;28;20129;-72
2022/05/04 08:48:32;;;;;;;13.40;5.70;;;;;;;-145.18;100.00;47258.16;5011083;28;20030;-72
2022/05/04 08:51:05;;;;;;;14.67;5.50;;;;;;;-145.18;100.00;47279.66;5011398;28;20346;-72
2022/05/04 08:53:31;;;;;;;11.20;5.00;;;;;;;-145.18;100.00;47287.47;4993168;28;20030;-71
2022/05/04 08:55:57;;;;;;;14.67;6.00;;;;;;;-145.18;100.00;47250.34;5011236;28;20030;-72
2022/05/04 08:58:22;;;;;;;12.57;6.03;;;;;;;-145.18;100.00;47248.41;4993369;28;20789;-72
2022/05/04 09:00:48;;;;;;;16.07;6.23;;;;;;;-145.18;100.00;47256.22;5011260;28;20034;-72
2022/05/04 09:03:13;;;;;;;12.90;5.17;;;;;;;-145.18;100.00;47271.84;5010650;28;20341;-72
2022/05/04 09:05:45;;;;;;;15.90;6.60;;;;;;;-145.18;100.00;47273.78;5011281;28;20040;-72
2022/05/04 09:08:10;;;;;;;12.97;5.47;;;;;;;-145.18;100.00;47267.94;5010816;28;20062;-72
2022/05/04 09:10:44;;;;;;;12.33;5.83;;;;;;;-145.18;100.00;47285.50;4993603;28;20360;-72
2022/05/04 09:13:10;;;;;;;15.87;6.93;;;;;;;-145.18;100.00;47260.13;5010415;28;20470;-72
2022/05/04 09:15:37;;;;;;;12.50;6.17;;;;;;;-145.18;100.00;47254.25;5011057;28;20026;-72
2022/05/04 09:18:13;;;;;;;13.57;6.60;;;;;;;-145.18;100.00;47269.88;5010794;28;20065;-72
2022/05/04 09:20:55;;;;;;;13.90;6.80;;;;;;;-145.18;100.00;47260.13;5010919;28;20029;-72
2022/05/04 09:23:31;;;;;;;13.60;6.20;;;;;;;-145.18;100.00;47277.69;5010465;28;20149;-72
2022/05/04 09:25:56;;;;;;;16.23;6.72;;;;;;;-145.18;100.00;47260.13;5010868;28;20036;-72
2022/05/04 09:28:26;;;;;;;14.40;6.53;;;;;;;-145.18;100.00;47244.50;5010469;28;20030;-72
2022/05/04 09:30:54;;;;;;;11.27;5.40;;;;;;;-145.18;100.00;47256.22;5011070;28;20579;-72
2022/05/04 09:33:27;;;;;;;16.20;7.23;;;;;;;-145.18;100.00;47262.06;5010041;28;20104;-72
2022/05/04 09:35:57;;;;;;;13.77;6.13;;;;;;;-145.18;100.00;47254.25;5011048;28;20494;-71
2022/05/04 09:46:46;;;;;;;15.25;7.05;;;;;;;-145.18;100.00;47246.44;5011111;28;20733;-72
2022/05/04 09:49:21;;;;;;;18.73;8.10;;;;;;;-145.18;100.00;47232.75;5009638;28;20042;-72
2022/05/04 09:51:53;;;;;;;18.35;8.57;;;;;;;-145.18;100.00;47226.91;5010663;28;20044;-72
2022/05/04 09:54:27;;;;;;;18.70;8.60;;;;;;;-145.18;100.00;47211.28;5001458;28;20034;-72
2022/05/04 09:56:53;;;;;;;15.00;7.90;;;;;;;-145.18;100.00;47209.31;4990993;28;20042;-72
2022/05/04 09:59:21;;;;;;;16.23;7.87;;;;;;;-145.18;100.00;47205.41;4990013;28;20702;-72
2022/05/04 10:01:48;;;;;;;17.13;8.50;;;;;;;-145.18;100.00;47228.84;4990566;28;20097;-72
2022/05/04 10:04:14;;;;;;;20.50;8.43;;;;;;;-145.18;100.00;47234.72;4989795;28;20058;-72
2022/05/04 10:06:40;;;;;;;17.30;7.47;;;;;;;-145.18;100.00;47211.28;4973325;28;20502;-72
2022/05/04 10:09:06;;;;;;;15.53;8.50;;;;;;;-145.18;100.00;47217.13;4989647;28;20057;-72
2022/05/04 10:11:34;;;;;;;17.53;7.60;;;;;;;-145.18;100.00;47176.09;4990502;28;20080;-72
2022/05/04 10:14:07;;;;;;;18.80;8.07;;;;;;;-145.18;100.00;47199.56;4989785;28;20567;-72
2022/05/04 10:16:40;;;;;;;19.70;7.63;;;;;;;-145.18;100.00;47217.13;4990690;28;20038;-72
2022/05/04 10:19:24;;;;;;;19.63;7.87;;;;;;;-145.18;100.00;47191.75;4989915;28;20112;-72
2022/05/04 10:21:53;;;;;;;15.47;7.90;;;;;;;-145.18;100.00;47170.25;4972944;28;20038;-72
2022/05/04 10:24:20;;;;;;;13.10;7.50;;;;;;;-145.18;100.00;47168.28;4989923;28;20045;-72
2022/05/04 10:26:46;;;;;;;14.23;7.43;;;;;;;-145.18;100.00;47195.66;4990689;28;20026;-72
2022/05/04 10:32:35;;;;;;;13.43;7.20;;;;;;;-145.18;100.00;47211.28;4990268;28;20084;-72
2022/05/04 10:35:12;;;;;;;17.03;7.47;;;;;;;-145.18;100.00;47195.66;4989851;28;20644;-72
2022/05/04 10:38:02;;;;;;;19.93;7.30;;;;;;;-145.18;100.00;47195.66;4990603;28;20014;-72
2022/05/04 10:40:27;;;;;;;14.83;7.57;;;;;;;-145.18;100.00;47180.03;4990069;28;20030;-72
2022/05/04 10:42:57;;;;;;;11.83;7.00;;;;;;;-145.18;100.00;47176.09;4990372;28;20033;-72
2022/05/04 10:45:32;;;;;;;14.60;7.57;;;;;;;-145.18;100.00;47164.38;4989746;28;20066;-72
2022/05/04 10:48:19;;;;;;;14.80;6.50;;;;;;;-145.18;100.00;47180.03;4990251;28;20041;-72
2022/05/04 10:50:55;;;;;;;14.83;8.60;;;;;;;-145.18;100.00;47164.38;4990195;28;20129;-71
2022/05/04 10:53:23;;;;;;;16.08;7.78;;;;;;;-145.18;100.00;47170.25;4993738;28;20075;-72
2022/05/04 10:56:07;;;;;;;18.47;7.70;;;;;;;-145.18;100.00;47183.94;4993559;28;20038;-72
2022/05/04 10:58:52;;;;;;;14.53;8.20;;;;;;;-145.18;100.00;47158.53;4993821;28;20027;-72
2022/05/04 11:01:30;;;;;;;15.95;7.40;;;;;;;-145.18;100.00;47185.88;4994755;28;20026;-72
2022/05/04 11:04:11;;;;;;;13.93;7.83;;;;;;;-145.18;100.00;47197.59;5012098;28;20048;-72
2022/05/04 11:06:39;;;;;;;18.13;7.90;;;;;;;-145.18;100.00;47180.03;5012323;28;20060;-72
2022/05/04 11:09:07;;;;;;;15.60;7.67;;;;;;;-145.18;100.00;47193.69;5012595;28;20624;-72
2022/05/04 11:11:34;;;;;;;18.57;8.17;;;;;;;-145.18;100.00;47160.47;5013387;28;20100;-72
2022/05/04 11:13:59;;;;;;;19.43;9.23;;;;;;;-145.18;100.00;47156.56;5012631;28;20038;-72
2022/05/04 11:16:26;;;;;;;16.87;7.20;;;;;;;-145.18;100.00;47162.44;5012545;28;20125;-72
2022/05/04 11:18:52;;;;;;;19.70;8.67;;;;;;;-145.18;100.00;47164.38;5011982;28;20102;-72
2022/05/04 11:21:18;;;;;;;14.70;8.23;;;;;;;-145.18;100.00;47144.84;5012197;28;20442;-72
2022/05/04 11:23:52;;;;;;;12.63;7.27;;;;;;;-145.18;100.00;47121.41;5011456;28;20029;-72
2022/05/04 11:26:23;;;;;;;18.03;8.00;;;;;;;-145.18;100.00;47129.22;5006230;28;20018;-72
2022/05/04 11:28:50;;;;;;;14.47;7.13;;;;;;;-145.18;100.00;47156.56;5003502;28;20045;-72
2022/05/04 11:31:17;;;;;;;13.13;7.77;;;;;;;-145.18;100.00;47154.63;5012098;28;20386;-72
2022/05/04 11:33:48;;;;;;;16.80;7.50;;;;;;;-145.18;100.00;47144.84;5012462;28;20041;-72
2022/05/04 11:36:16;;;;;;;10.50;6.87;;;;;;;-145.18;100.00;47109.69;5012023;28;20117;-72
2022/05/04 11:38:45;;;;;;;16.13;7.60;;;;;;;-145.18;100.00;47154.63;5011945;28;20026;-72
2022/05/04 11:41:11;;;;;;;12.37;6.47;;;;;;;-145.18;100.00;47160.47;5012403;28;20065;-72
2022/05/04 11:43:37;;;;;;;14.43;8.03;;;;;;;-145.18;100.00;47137.03;5012576;28;20045;-72
2022/05/04 11:46:07;;;;;;;13.20;7.73;;;;;;;-145.18;100.00;47160.47;5011736;28;20037;-72
2022/05/04 11:48:35;;;;;;;14.50;7.17;;;;;;;-145.18;100.00;47162.44;5012031;28;20386;-72
2022/05/04 11:51:01;;;;;;;14.17;6.80;;;;;;;-145.18;100.00;47152.66;5008980;28;20033;-72
2022/05/04 11:53:26;;;;;;;9.47;5.47;;;;;;;-145.18;100.00;47152.66;4996504;28;20038;-72
2022/05/04 11:55:52;;;;;;;14.63;6.47;;;;;;;-145.18;100.00;47133.13;4991961;28;20063;-72
2022/05/04 11:58:17;;;;;;;16.27;7.90;;;;;;;-145.18;100.00;47113.59;5010001;28;20087;-72
2022/05/04 12:00:43;;;;;;;10.50;6.53;;;;;;;-145.18;100.00;47096.00;5011897;28;20034;-72
2022/05/04 12:03:10;;;;;;;12.93;6.40;;;;;;;-145.18;100.00;47092.09;5010661;28;20502;-72
2022/05/04 12:05:38;;;;;;;10.47;6.07;;;;;;;-145.18;100.00;47060.84;5012062;28;20495;-72
2022/05/04 12:08:07;;;;;;;14.33;6.80;;;;;;;-145.18;100.00;47047.19;5012199;28;20026;-72
2022/05/04 12:10:35;;;;;;;20.63;9.33;;;;;;;-145.18;100.00;47055.00;5011808;28;20108;-72
2022/05/04 12:13:02;;;;;;;14.97;8.07;;;;;;;-145.18;100.00;47086.25;4994588;28;20455;-72
2022/05/04 12:15:28;;;;;;;17.00;8.17;;;;;;;-145.18;100.00;47123.38;5011747;28;20038;-72
2022/05/04 12:18:02;;;;;;;17.80;9.43;;;;;;;-145.18;100.00;47107.72;5012265;28;20481;-72
2022/05/04 12:20:28;;;;;;;14.67;8.67;;;;;;;-145.18;100.00;47123.38;5012678;28;20037;-72
2022/05/04 12:22:55;;;;;;;16.87;9.13;;;;;;;-145.18;100.00;47137.03;4993296;28;20039;-72
2022/05/04 12:25:23;;;;;;;19.10;9.17;;;;;;;-145.18;100.00;47103.81;4991575;28;20454;-72
2022/05/04 12:27:50;;;;;;;15.13;8.60;;;;;;;-145.18;100.00;47086.25;5011307;28;20030;-72
2022/05/04 12:33:09;;;;;;;18.90;10.63;;;;;;;-145.18;100.00;47084.28;5012092;28;20087;-72
2022/05/04 12:35:36;;;;;;;18.90;10.17;;;;;;;-145.18;100.00;47121.41;5011346;28;20133;-72
2022/05/04 12:38:03;;;;;;;14.37;8.50;;;;;;;-145.18;100.00;47144.84;5011759;28;20467;-72
2022/05/04 12:40:31;;;;;;;20.67;9.63;;;;;;;-145.18;100.00;47113.59;5011302;28;20048;-72
2022/05/04 12:42:57;;;;;;;20.03;9.13;;;;;;;-145.18;100.00;47133.13;5011699;28;20042;-72
2022/05/04 12:45:24;;;;;;;17.90;8.03;;;;;;;-145.18;100.00;47181.97;5010990;28;20041;-72
2022/05/04 12:47:50;;;;;;;15.67;8.67;;;;;;;-145.18;100.00;47183.94;5011669;28;20034;-72
2022/05/04 12:50:15;;;;;;;16.20;8.70;;;;;;;-145.18;100.00;47187.84;5011122;28;20073;-72
2022/05/04 12:52:41;;;;;;;15.70;8.80;;;;;;;-145.18;100.00;47158.53;5011383;28;20033;-72
2022/05/04 12:55:06;;;;;;;15.37;8.83;;;;;;;-145.18;100.00;47133.13;5010865;28;20510;-72
2022/05/04 12:57:32;;;;;;;19.73;9.60;;;;;;;-145.18;100.00;47111.66;5011724;28;20491;-72
2022/05/04 12:59:57;;;;;;;15.77;8.10;;;;;;;-145.18;100.00;47129.22;5011160;28;20037;-72
2022/05/04 13:02:23;;;;;;;14.27;8.93;;;;;;;-145.18;100.00;47168.28;5011062;28;20076;-72
2022/05/04 13:04:48;;;;;;;19.93;9.30;;;;;;;-145.18;100.00;47183.94;5010666;28;20064;-72
2022/05/04 13:07:14;;;;;;;21.03;8.90;;;;;;;-145.18;100.00;47137.03;5010910;28;20491;-72
2022/05/04 13:09:41;;;;;;;19.77;10.17;;;;;;;-145.18;100.00;47096.00;5010879;28;20068;-73
2022/05/04 13:12:11;;;;;;;19.20;9.67;;;;;;;-145.18;100.00;47105.78;5010971;28;20034;-72
2022/05/04 13:14:38;;;;;;;21.90;10.07;;;;;;;-145.18;100.00;47080.38;4993186;28;20053;-72
2022/05/04 13:17:04;;;;;;;20.43;9.63;;;;;;;-145.18;100.00;47080.38;5010713;28;20092;-73
2022/05/04 13:19:29;;;;;;;19.50;10.33;;;;;;;-145.18;100.00;47117.50;5010528;28;20042;-72
2022/05/04 13:21:55;;;;;;;15.87;9.80;;;;;;;-145.18;100.00;47076.47;5011169;28;20586;-73
2022/05/04 13:24:20;;;;;;;19.53;10.07;;;;;;;-145.18;100.00;47088.19;5010182;28;20530;-72
2022/05/04 13:26:45;;;;;;;18.97;10.50;;;;;;;-145.18;100.00;47092.09;5010749;28;20026;-72
2022/05/04 13:29:11;;;;;;;17.07;9.27;;;;;;;-145.18;100.00;47090.16;5010552;28;20046;-72
2022/05/04 13:31:36;;;;;;;15.83;9.67;;;;;;;-145.18;100.00;47127.28;5010849;28;20371;-73
2022/05/04 13:34:02;;;;;;;17.63;9.30;;;;;;;-145.18;100.00;47119.47;5009989;28;20053;-72
2022/05/04 13:36:27;;;;;;;16.70;9.70;;;;;;;-145.18;100.00;47090.16;5010906;28;20041;-73
2022/05/04 13:38:53;;;;;;;14.23;8.13;;;;;;;-145.18;100.00;47097.97;5010664;28;20042;-73